sim
Sign-in with your pilot id or email,
or register
Callsign
Passwort

Schedule Details

Flight Number: DLH2253
Departure: Lyon Saint Exupery Airport (LFLL) at 19:15
Arrival: Munich Airport (EDDM) at 20:35
Route: Lufthansa Passenger Schedule. Enter filed route here before submitting Pirep.

Weather Information
Getting current METAR information for LFLL 220430Z 12005KT 9999 BKN036 BKN080 17/16 Q1014 NOSIG
Getting current METAR information for EDDM 220450Z 06001KT 2500 1200N R08L/1400D R08R/P2000N BCFG NSC 09/09 Q1014 NOSIG

Schedule Frequency

Route Map